Time;durP1;ratioP1;P1;durP2;ratioP2;P2;SDS_P1;SDS_P2;PMS_P1;PMS_P2;Temp;Humidity;BMP_temperature;BMP_pressure;BME280_temperature;BME280_humidity;BME280_pressure;Samples;Min_cycle;Max_cycle;Signal;HPM_P1;HPM_P2
2023/05/02 00:00:30;;;;;;;2.13;1.92;;;;;;;;;;5093339;28;20028;-65
2023/05/02 00:02:56;;;;;;;2.25;2.08;;;;;;;;;;5093379;28;20051;-65
2023/05/02 00:05:22;;;;;;;2.10;1.90;;;;;;;;;;5093286;28;20051;-65
2023/05/02 00:07:48;;;;;;;1.85;1.75;;;;;;;;;;5093228;28;20101;-65
2023/05/02 00:10:13;;;;;;;1.77;1.67;;;;;;;;;;5091927;28;20036;-65
2023/05/02 00:12:39;;;;;;;2.10;1.90;;;;;;;;;;5093195;28;20020;-65
2023/05/02 00:15:05;;;;;;;1.80;1.70;;;;;;;;;;5093373;28;20043;-66
2023/05/02 00:17:31;;;;;;;2.03;1.88;;;;;;;;;;5093157;28;20475;-66
2023/05/02 00:19:56;;;;;;;2.13;1.98;;;;;;;;;;5093328;28;20074;-66
2023/05/02 00:22:22;;;;;;;2.35;2.15;;;;;;;;;;5092985;28;20491;-66
2023/05/02 00:24:47;;;;;;;2.70;2.10;;;;;;;;;;5092951;28;20024;-66
2023/05/02 00:27:13;;;;;;;2.00;1.80;;;;;;;;;;5093004;28;20017;-66
2023/05/02 00:29:39;;;;;;;2.60;2.00;;;;;;;;;;5093074;28;20031;-65
2023/05/02 00:32:06;;;;;;;2.08;1.98;;;;;;;;;;5093184;28;20545;-65
2023/05/02 00:34:31;;;;;;;2.30;2.10;;;;;;;;;;5093047;28;20024;-65
2023/05/02 00:36:57;;;;;;;3.40;2.00;;;;;;;;;;5092600;28;20048;-67
2023/05/02 00:39:23;;;;;;;2.20;2.00;;;;;;;;;;5092669;28;20031;-66
2023/05/02 00:41:55;;;;;;;2.22;2.03;;;;;;;;;;5092118;28;20058;-66
2023/05/02 00:44:21;;;;;;;4.43;2.00;;;;;;;;;;5092922;28;20361;-67
2023/05/02 00:46:46;;;;;;;1.95;1.85;;;;;;;;;;5092838;28;20028;-67
2023/05/02 00:49:12;;;;;;;2.50;2.30;;;;;;;;;;5092515;28;20356;-66
2023/05/02 00:51:39;;;;;;;2.30;2.10;;;;;;;;;;5092876;28;20026;-67
2023/05/02 00:54:04;;;;;;;1.80;1.70;;;;;;;;;;5092519;28;20028;-65
2023/05/02 00:56:30;;;;;;;2.05;1.90;;;;;;;;;;5092823;28;20035;-66
2023/05/02 00:58:56;;;;;;;2.05;1.95;;;;;;;;;;5092474;28;20028;-65
2023/05/02 01:01:34;;;;;;;1.80;1.70;;;;;;;;;;5092415;28;20740;-65
2023/05/02 01:04:22;;;;;;;2.10;1.90;;;;;;;;;;5092448;28;20024;-66
2023/05/02 01:07:19;;;;;;;2.20;2.00;;;;;;;;;;5092553;28;20529;-66
2023/05/02 01:09:59;;;;;;;2.53;2.17;;;;;;;;;;5083910;28;20040;-65
2023/05/02 01:12:41;;;;;;;2.42;2.08;;;;;;;;;;5092434;28;20020;-65
2023/05/02 01:15:11;;;;;;;2.00;1.80;;;;;;;;;;5092505;28;20077;-65
2023/05/02 01:17:38;;;;;;;2.75;2.15;;;;;;;;;;5092290;28;20030;-65
2023/05/02 01:20:18;;;;;;;2.10;1.90;;;;;;;;;;5092350;28;20480;-65
2023/05/02 01:22:45;;;;;;;2.20;2.00;;;;;;;;;;5092266;28;20061;-65
2023/05/02 01:25:36;;;;;;;2.10;1.90;;;;;;;;;;5092290;28;20029;-65
2023/05/02 01:28:20;;;;;;;1.95;1.85;;;;;;;;;;5092428;28;20035;-64
2023/05/02 01:30:49;;;;;;;2.20;2.10;;;;;;;;;;5092519;28;20027;-66
2023/05/02 01:33:16;;;;;;;2.20;2.00;;;;;;;;;;5092468;28;20024;-65
2023/05/02 01:35:45;;;;;;;2.25;2.08;;;;;;;;;;5092009;28;20223;-66
2023/05/02 01:38:15;;;;;;;2.17;1.98;;;;;;;;;;5092459;28;20026;-65
2023/05/02 01:40:44;;;;;;;2.13;1.92;;;;;;;;;;5092498;28;20040;-65
2023/05/02 01:43:11;;;;;;;1.95;1.80;;;;;;;;;;5092213;28;20032;-65
2023/05/02 01:45:38;;;;;;;3.17;2.00;;;;;;;;;;5092100;28;20020;-67
2023/05/02 01:48:06;;;;;;;2.40;2.17;;;;;;;;;;5092267;28;20073;-65
2023/05/02 01:50:33;;;;;;;2.30;1.95;;;;;;;;;;5092362;28;20088;-67
2023/05/02 01:53:00;;;;;;;2.13;1.92;;;;;;;;;;5094996;28;20017;-65
2023/05/02 01:55:27;;;;;;;2.67;2.03;;;;;;;;;;5096202;28;20103;-66
2023/05/02 01:57:55;;;;;;;2.20;2.10;;;;;;;;;;5095718;28;20111;-66
2023/05/02 02:00:22;;;;;;;2.20;2.00;;;;;;;;;;5095579;28;20028;-65
2023/05/02 02:02:51;;;;;;;2.20;2.00;;;;;;;;;;5096033;28;20020;-65
2023/05/02 02:05:19;;;;;;;2.40;2.20;;;;;;;;;;5095600;28;20052;-64
2023/05/02 02:07:45;;;;;;;2.08;1.95;;;;;;;;;;5095380;28;20024;-66
2023/05/02 02:10:11;;;;;;;2.10;1.90;;;;;;;;;;5095707;28;20052;-65
2023/05/02 02:13:03;;;;;;;2.20;1.95;;;;;;;;;;5095454;28;20035;-64
2023/05/02 02:15:33;;;;;;;2.38;1.90;;;;;;;;;;5095702;28;20052;-66
2023/05/02 02:18:11;;;;;;;2.10;2.00;;;;;;;;;;5095621;28;20074;-64
2023/05/02 02:20:37;;;;;;;1.90;1.80;;;;;;;;;;5095308;28;20040;-65
2023/05/02 02:23:07;;;;;;;1.95;1.85;;;;;;;;;;5095285;28;20489;-67
2023/05/02 02:25:33;;;;;;;2.08;1.98;;;;;;;;;;5095209;28;20107;-66
2023/05/02 02:28:00;;;;;;;2.42;2.22;;;;;;;;;;5095046;28;20071;-66
2023/05/02 02:30:25;;;;;;;1.98;1.77;;;;;;;;;;5095004;28;20027;-64
2023/05/02 02:32:51;;;;;;;2.30;2.10;;;;;;;;;;5095247;28;20020;-65
2023/05/02 02:35:17;;;;;;;2.40;2.20;;;;;;;;;;5094951;28;20476;-66
2023/05/02 02:38:14;;;;;;;2.20;2.00;;;;;;;;;;5094816;28;20081;-66
2023/05/02 02:40:41;;;;;;;2.22;2.03;;;;;;;;;;5095014;28;20024;-65
2023/05/02 02:43:17;;;;;;;2.65;2.10;;;;;;;;;;5095250;28;20020;-65
2023/05/02 02:46:19;;;;;;;2.25;1.92;;;;;;;;;;5095141;28;20047;-65
2023/05/02 02:48:54;;;;;;;2.10;1.90;;;;;;;;;;5094992;28;20036;-66
2023/05/02 02:51:30;;;;;;;2.33;1.90;;;;;;;;;;5094811;28;20356;-66
2023/05/02 02:54:22;;;;;;;2.08;1.95;;;;;;;;;;5094730;28;20469;-66
2023/05/02 02:56:54;;;;;;;2.28;2.08;;;;;;;;;;5093370;28;20467;-66
2023/05/02 02:59:26;;;;;;;1.90;1.80;;;;;;;;;;5094613;28;20028;-66
2023/05/02 03:02:08;;;;;;;2.22;2.03;;;;;;;;;;5094836;28;20024;-66
2023/05/02 03:04:37;;;;;;;1.98;1.88;;;;;;;;;;5093879;28;20063;-65
2023/05/02 03:07:03;;;;;;;1.92;1.83;;;;;;;;;;5094750;28;20036;-65
2023/05/02 03:09:43;;;;;;;2.28;2.08;;;;;;;;;;5094299;28;20388;-65
2023/05/02 03:12:08;;;;;;;2.17;1.98;;;;;;;;;;5094355;28;20107;-66
2023/05/02 03:14:35;;;;;;;2.10;1.90;;;;;;;;;;5094575;28;20111;-65
2023/05/02 03:17:01;;;;;;;1.90;1.80;;;;;;;;;;5094521;28;20027;-66
2023/05/02 03:19:26;;;;;;;2.00;1.90;;;;;;;;;;5094184;28;20463;-66
2023/05/02 03:21:52;;;;;;;2.08;1.88;;;;;;;;;;5094192;28;20042;-65
2023/05/02 03:24:18;;;;;;;2.30;1.98;;;;;;;;;;5094117;28;20030;-65
2023/05/02 03:26:43;;;;;;;2.28;2.05;;;;;;;;;;5094030;28;20464;-65
2023/05/02 03:29:09;;;;;;;2.75;2.17;;;;;;;;;;5093897;28;20479;-66
2023/05/02 03:31:35;;;;;;;2.35;2.00;;;;;;;;;;5093967;28;20016;-65
2023/05/02 03:34:01;;;;;;;2.17;2.00;;;;;;;;;;5093930;28;20020;-65
2023/05/02 03:36:26;;;;;;;2.08;1.90;;;;;;;;;;5093620;28;20113;-66
2023/05/02 03:38:52;;;;;;;2.10;1.90;;;;;;;;;;5093824;28;20026;-65
2023/05/02 03:41:19;;;;;;;1.80;1.70;;;;;;;;;;5093726;28;20020;-65
2023/05/02 03:43:45;;;;;;;1.90;1.80;;;;;;;;;;5093608;28;20024;-65
2023/05/02 03:46:11;;;;;;;2.13;1.92;;;;;;;;;;5093616;28;20112;-65
2023/05/02 03:48:36;;;;;;;2.33;1.90;;;;;;;;;;5093738;28;20043;-65
2023/05/02 03:51:03;;;;;;;2.10;2.00;;;;;;;;;;5093545;28;20028;-65
2023/05/02 03:53:33;;;;;;;2.20;2.00;;;;;;;;;;5092581;28;20047;-65
2023/05/02 03:55:58;;;;;;;2.40;2.08;;;;;;;;;;5093549;28;20055;-65
2023/05/02 03:58:24;;;;;;;2.17;1.90;;;;;;;;;;5093696;28;20024;-66
2023/05/02 04:00:52;;;;;;;2.72;2.00;;;;;;;;;;5092123;28;20436;-66
2023/05/02 04:03:18;;;;;;;2.28;2.05;;;;;;;;;;5093387;28;20463;-65
2023/05/02 04:05:44;;;;;;;4.22;2.05;;;;;;;;;;5093316;28;20523;-65
2023/05/02 04:08:10;;;;;;;1.90;1.80;;;;;;;;;;5093260;28;20115;-65
2023/05/02 04:10:36;;;;;;;2.22;1.88;;;;;;;;;;5093291;28;20059;-65
2023/05/02 04:13:02;;;;;;;2.53;2.22;;;;;;;;;;5093059;28;20052;-65
2023/05/02 04:15:28;;;;;;;2.78;2.28;;;;;;;;;;5092508;28;20027;-66
2023/05/02 04:17:56;;;;;;;2.83;2.05;;;;;;;;;;5092997;28;20031;-65
2023/05/02 04:20:21;;;;;;;2.30;2.10;;;;;;;;;;5093265;28;20371;-66
2023/05/02 04:22:49;;;;;;;1.90;1.80;;;;;;;;;;5091807;28;20024;-66
2023/05/02 04:25:14;;;;;;;2.20;2.00;;;;;;;;;;5092955;28;20035;-66
2023/05/02 04:27:40;;;;;;;2.10;1.90;;;;;;;;;;5092785;28;20028;-66
2023/05/02 04:30:06;;;;;;;2.75;2.10;;;;;;;;;;5092901;28;20023;-66
2023/05/02 04:32:32;;;;;;;3.05;2.72;;;;;;;;;;5093132;28;20024;-66
2023/05/02 04:34:58;;;;;;;2.10;1.92;;;;;;;;;;5092776;28;20056;-66
2023/05/02 04:37:24;;;;;;;2.42;2.20;;;;;;;;;;5091375;28;20614;-66
2023/05/02 04:39:50;;;;;;;2.25;2.05;;;;;;;;;;5092961;28;20473;-66
2023/05/02 04:42:15;;;;;;;2.13;1.92;;;;;;;;;;5093035;28;20464;-66
2023/05/02 04:44:41;;;;;;;2.58;2.38;;;;;;;;;;5092874;28;20035;-66
2023/05/02 04:47:06;;;;;;;2.35;2.05;;;;;;;;;;5092649;28;20047;-66
2023/05/02 04:49:32;;;;;;;1.83;1.70;;;;;;;;;;5092581;28;20517;-66
2023/05/02 04:51:58;;;;;;;2.30;1.90;;;;;;;;;;5092870;28;20028;-66
2023/05/02 04:54:23;;;;;;;2.28;1.98;;;;;;;;;;5092431;28;20020;-66
2023/05/02 04:56:49;;;;;;;2.17;1.98;;;;;;;;;;5092544;28;20036;-66
2023/05/02 04:59:14;;;;;;;3.45;2.08;;;;;;;;;;5092721;28;20084;-66
2023/05/02 05:01:40;;;;;;;1.98;1.88;;;;;;;;;;5092497;28;20020;-66
2023/05/02 05:04:05;;;;;;;2.30;2.10;;;;;;;;;;5092287;28;20024;-66
2023/05/02 05:06:31;;;;;;;2.30;2.10;;;;;;;;;;5091396;28;20039;-65
2023/05/02 05:08:57;;;;;;;2.22;2.03;;;;;;;;;;5092247;28;20020;-66
2023/05/02 05:11:22;;;;;;;2.50;2.30;;;;;;;;;;5092338;28;20035;-65
2023/05/02 05:13:49;;;;;;;2.78;2.10;;;;;;;;;;5092693;28;20365;-65
2023/05/02 05:16:14;;;;;;;2.80;2.10;;;;;;;;;;5092559;28;20054;-66
2023/05/02 05:18:40;;;;;;;2.63;2.10;;;;;;;;;;5089736;28;20024;-65
2023/05/02 05:21:09;;;;;;;3.35;2.00;;;;;;;;;;5090115;28;20032;-64
2023/05/02 05:23:36;;;;;;;1.85;1.75;;;;;;;;;;5090041;28;20070;-65
2023/05/02 05:26:14;;;;;;;2.30;2.10;;;;;;;;;;5089879;28;20023;-65
2023/05/02 05:28:40;;;;;;;2.20;1.88;;;;;;;;;;5093871;28;20032;-66
2023/05/02 05:31:10;;;;;;;2.40;2.20;;;;;;;;;;5095145;28;20463;-65
2023/05/02 05:33:37;;;;;;;2.10;1.90;;;;;;;;;;5094374;28;20123;-65
2023/05/02 05:36:08;;;;;;;3.35;2.10;;;;;;;;;;5093401;28;20388;-66
2023/05/02 05:38:34;;;;;;;3.03;2.10;;;;;;;;;;5092974;28;20074;-66
2023/05/02 05:41:00;;;;;;;2.13;2.00;;;;;;;;;;5094194;28;20487;-66
2023/05/02 05:43:26;;;;;;;2.95;2.50;;;;;;;;;;5096025;28;20501;-65
2023/05/02 05:45:53;;;;;;;2.20;2.10;;;;;;;;;;5092437;28;20163;-66
2023/05/02 05:48:19;;;;;;;2.30;2.10;;;;;;;;;;5093705;28;20032;-66
2023/05/02 05:50:45;;;;;;;2.70;2.15;;;;;;;;;;5094553;28;20030;-65
2023/05/02 05:53:11;;;;;;;2.42;1.95;;;;;;;;;;5094208;28;20056;-66
2023/05/02 05:55:37;;;;;;;3.30;2.10;;;;;;;;;;5094328;28;20052;-65
2023/05/02 05:58:03;;;;;;;2.75;1.90;;;;;;;;;;5093898;28;20491;-65
2023/05/02 06:00:29;;;;;;;3.78;2.10;;;;;;;;;;5093222;28;20506;-65
2023/05/02 06:02:55;;;;;;;3.03;2.30;;;;;;;;;;5093709;28;20020;-65
2023/05/02 06:05:20;;;;;;;2.63;2.20;;;;;;;;;;5094432;28;20031;-65
2023/05/02 06:07:46;;;;;;;2.47;2.28;;;;;;;;;;5093783;28;20085;-65
2023/05/02 06:10:12;;;;;;;2.95;2.30;;;;;;;;;;5094019;28;20032;-65
2023/05/02 06:12:37;;;;;;;2.50;2.30;;;;;;;;;;5092603;28;20023;-65
2023/05/02 06:15:03;;;;;;;2.30;2.10;;;;;;;;;;5093719;28;20047;-66
2023/05/02 06:17:29;;;;;;;2.70;2.38;;;;;;;;;;5093668;28;20035;-66
2023/05/02 06:19:54;;;;;;;3.20;2.40;;;;;;;;;;5093841;28;20032;-65
2023/05/02 06:22:20;;;;;;;2.80;2.25;;;;;;;;;;5094040;28;20034;-66
2023/05/02 06:24:45;;;;;;;2.47;2.25;;;;;;;;;;5093770;28;20024;-65
2023/05/02 06:27:11;;;;;;;4.45;2.60;;;;;;;;;;5093607;28;20024;-66
2023/05/02 06:29:36;;;;;;;3.47;2.35;;;;;;;;;;5093509;28;20052;-65
2023/05/02 06:32:03;;;;;;;3.92;2.40;;;;;;;;;;5093641;28;20040;-65
2023/05/02 06:34:31;;;;;;;2.65;2.40;;;;;;;;;;5093558;28;20027;-66
2023/05/02 06:36:57;;;;;;;2.70;2.22;;;;;;;;;;5092975;28;20063;-65
2023/05/02 06:39:23;;;;;;;3.38;2.20;;;;;;;;;;5092435;28;20036;-65
2023/05/02 06:41:48;;;;;;;6.20;2.58;;;;;;;;;;5093231;28;20099;-65
2023/05/02 06:44:14;;;;;;;2.35;2.10;;;;;;;;;;5093040;28;20038;-65
2023/05/02 06:46:39;;;;;;;2.67;2.47;;;;;;;;;;5085896;28;20036;-66
2023/05/02 06:49:05;;;;;;;2.45;2.05;;;;;;;;;;5093043;28;20056;-66
2023/05/02 06:51:31;;;;;;;4.03;2.70;;;;;;;;;;5073708;28;20522;-65
2023/05/02 06:53:56;;;;;;;2.60;2.35;;;;;;;;;;5072771;28;20493;-65
2023/05/02 06:56:25;;;;;;;3.25;2.35;;;;;;;;;;5072792;28;20032;-65
2023/05/02 06:58:51;;;;;;;2.63;2.30;;;;;;;;;;5072673;28;20028;-65
2023/05/02 07:01:17;;;;;;;2.97;2.10;;;;;;;;;;5071256;28;20029;-65
2023/05/02 07:03:42;;;;;;;3.30;2.30;;;;;;;;;;5072535;28;20402;-65
2023/05/02 07:06:08;;;;;;;2.60;2.22;;;;;;;;;;5072529;28;20028;-65
2023/05/02 07:08:35;;;;;;;2.40;2.20;;;;;;;;;;5087058;28;20093;-65
2023/05/02 07:11:01;;;;;;;2.72;2.30;;;;;;;;;;5092082;28;20024;-65
2023/05/02 07:13:27;;;;;;;2.70;2.30;;;;;;;;;;5092582;28;20035;-65
2023/05/02 07:15:53;;;;;;;2.95;2.30;;;;;;;;;;5092654;28;20024;-65
2023/05/02 07:18:18;;;;;;;2.63;2.30;;;;;;;;;;5081216;28;20021;-65
2023/05/02 07:20:44;;;;;;;2.50;2.30;;;;;;;;;;5072308;28;20036;-64
2023/05/02 07:23:10;;;;;;;2.97;2.33;;;;;;;;;;5070970;28;20035;-64
2023/05/02 07:25:36;;;;;;;3.13;2.30;;;;;;;;;;5072393;28;20036;-65
2023/05/02 07:28:01;;;;;;;2.30;2.10;;;;;;;;;;5072146;28;20547;-65
2023/05/02 07:30:27;;;;;;;2.65;2.20;;;;;;;;;;5072062;28;20135;-65
2023/05/02 07:32:52;;;;;;;2.60;2.00;;;;;;;;;;5089268;28;20031;-65
2023/05/02 07:35:18;;;;;;;3.25;2.13;;;;;;;;;;5092470;28;20031;-65
2023/05/02 07:37:44;;;;;;;2.38;2.17;;;;;;;;;;5092039;28;20240;-65
2023/05/02 07:40:09;;;;;;;3.00;2.38;;;;;;;;;;5090055;28;20499;-65
2023/05/02 07:42:35;;;;;;;2.30;2.08;;;;;;;;;;5090987;28;20051;-64
2023/05/02 07:45:01;;;;;;;2.22;2.00;;;;;;;;;;5091601;28;20038;-65
2023/05/02 07:47:28;;;;;;;3.38;2.25;;;;;;;;;;5091987;28;20506;-64
2023/05/02 07:49:54;;;;;;;2.65;2.30;;;;;;;;;;5091986;28;20044;-65
2023/05/02 07:52:20;;;;;;;4.32;2.30;;;;;;;;;;5092249;28;20028;-66
2023/05/02 07:54:50;;;;;;;3.97;2.05;;;;;;;;;;5091852;28;20047;-68
2023/05/02 07:57:16;;;;;;;8.70;2.50;;;;;;;;;;5090407;28;20032;-68
2023/05/02 07:59:41;;;;;;;3.17;2.40;;;;;;;;;;5091351;28;20035;-67
2023/05/02 08:02:07;;;;;;;2.83;2.50;;;;;;;;;;5090651;28;20105;-66
2023/05/02 08:04:33;;;;;;;2.88;2.33;;;;;;;;;;5090520;28;20032;-65
2023/05/02 08:06:59;;;;;;;3.47;2.30;;;;;;;;;;5090291;28;20055;-65
2023/05/02 08:09:25;;;;;;;3.47;2.50;;;;;;;;;;5090618;28;20063;-64
2023/05/02 08:11:51;;;;;;;4.70;2.28;;;;;;;;;;5090292;28;20028;-63
2023/05/02 08:14:17;;;;;;;2.80;2.28;;;;;;;;;;5078145;28;20032;-64
2023/05/02 08:16:43;;;;;;;4.53;2.28;;;;;;;;;;5089676;28;20040;-64
2023/05/02 08:19:08;;;;;;;6.47;2.30;;;;;;;;;;5091393;28;20027;-65
2023/05/02 08:21:34;;;;;;;5.25;2.50;;;;;;;;;;5091461;28;20061;-65
2023/05/02 08:24:00;;;;;;;4.72;2.65;;;;;;;;;;5091642;28;20028;-64
2023/05/02 08:26:26;;;;;;;3.30;2.20;;;;;;;;;;5091456;28;20372;-64
2023/05/02 08:28:53;;;;;;;2.97;2.30;;;;;;;;;;5091119;28;20032;-66
2023/05/02 08:31:19;;;;;;;2.97;2.40;;;;;;;;;;5091169;28;20378;-64
2023/05/02 08:33:45;;;;;;;2.88;2.25;;;;;;;;;;5091109;28;20107;-68
2023/05/02 08:36:12;;;;;;;2.78;2.25;;;;;;;;;;5091204;28;20119;-65
2023/05/02 08:38:38;;;;;;;3.20;2.20;;;;;;;;;;5091063;28;20026;-65
2023/05/02 08:41:16;;;;;;;4.28;2.42;;;;;;;;;;5091149;28;20102;-66
2023/05/02 08:43:43;;;;;;;5.28;2.28;;;;;;;;;;5091151;28;20032;-66
2023/05/02 08:46:13;;;;;;;3.22;2.30;;;;;;;;;;5089788;28;20537;-65
2023/05/02 08:48:41;;;;;;;2.42;2.22;;;;;;;;;;5089478;28;20558;-66
2023/05/02 08:51:09;;;;;;;4.78;2.30;;;;;;;;;;5089650;28;20032;-65
2023/05/02 08:53:35;;;;;;;2.83;2.13;;;;;;;;;;5090903;28;20035;-66
2023/05/02 08:56:01;;;;;;;2.53;2.30;;;;;;;;;;5091130;28;20044;-65
2023/05/02 08:58:28;;;;;;;3.45;2.40;;;;;;;;;;5090891;28;20032;-65
2023/05/02 09:00:55;;;;;;;2.50;2.30;;;;;;;;;;5090564;28;20028;-66
2023/05/02 09:03:35;;;;;;;4.03;2.42;;;;;;;;;;5089394;28;20372;-66
2023/05/02 09:06:11;;;;;;;3.03;2.20;;;;;;;;;;5091402;28;20028;-66
2023/05/02 09:08:45;;;;;;;4.28;2.25;;;;;;;;;;5091021;28;20032;-66
2023/05/02 09:11:11;;;;;;;2.35;2.10;;;;;;;;;;5090804;28;20204;-66
2023/05/02 09:13:48;;;;;;;3.78;2.13;;;;;;;;;;5090773;28;20368;-66
2023/05/02 09:16:23;;;;;;;4.15;2.08;;;;;;;;;;5090987;28;20020;-66
2023/05/02 09:18:52;;;;;;;4.28;2.15;;;;;;;;;;5090657;28;20360;-66
2023/05/02 09:21:20;;;;;;;3.15;2.30;;;;;;;;;;5091086;28;20029;-67
2023/05/02 09:23:49;;;;;;;3.42;2.10;;;;;;;;;;5090707;28;20040;-67
2023/05/02 09:26:19;;;;;;;4.13;2.42;;;;;;;;;;5090599;28;20016;-67
2023/05/02 09:28:46;;;;;;;;;;;;;;;;;;5090951;28;20036;-66
2023/05/02 09:31:18;;;;;;;2.33;2.00;;;;;;;;;;5090592;28;19923;-67
2023/05/02 09:33:44;;;;;;;2.70;1.88;;;;;;;;;;5090503;28;20080;-66
2023/05/02 09:36:13;;;;;;;4.45;2.58;;;;;;;;;;5090522;28;20460;-66
2023/05/02 09:38:39;;;;;;;3.30;2.08;;;;;;;;;;5090344;28;20032;-66
2023/05/02 09:41:05;;;;;;;3.17;2.25;;;;;;;;;;5084002;28;20373;-66
2023/05/02 09:43:32;;;;;;;5.80;2.20;;;;;;;;;;5070366;28;20142;-66
2023/05/02 09:45:58;;;;;;;3.50;2.20;;;;;;;;;;5083466;28;20113;-67
2023/05/02 09:48:26;;;;;;;3.42;2.20;;;;;;;;;;5083733;28;20031;-65
2023/05/02 09:50:52;;;;;;;3.88;2.47;;;;;;;;;;5085393;28;20032;-65
2023/05/02 09:53:18;;;;;;;2.88;1.98;;;;;;;;;;5090591;28;20024;-65
2023/05/02 09:55:43;;;;;;;2.17;1.98;;;;;;;;;;5090176;28;20380;-66
2023/05/02 09:58:22;;;;;;;5.03;2.33;;;;;;;;;;5090162;28;20024;-65
2023/05/02 10:00:50;;;;;;;4.40;2.40;;;;;;;;;;5089390;28;20071;-66
2023/05/02 10:03:17;;;;;;;3.22;2.20;;;;;;;;;;5088741;28;20040;-66
2023/05/02 10:05:44;;;;;;;4.72;2.10;;;;;;;;;;5090368;28;20247;-66
2023/05/02 10:08:11;;;;;;;2.35;2.15;;;;;;;;;;5090152;28;20024;-66
2023/05/02 10:10:38;;;;;;;3.00;2.38;;;;;;;;;;5087834;28;20074;-65
2023/05/02 10:13:06;;;;;;;3.60;2.15;;;;;;;;;;5070065;28;20035;-66
2023/05/02 10:15:33;;;;;;;5.50;2.40;;;;;;;;;;5073566;28;20020;-66
2023/05/02 10:18:02;;;;;;;6.68;2.42;;;;;;;;;;5077367;28;20024;-66
2023/05/02 10:20:36;;;;;;;4.13;2.35;;;;;;;;;;5072513;28;20410;-66
2023/05/02 10:23:03;;;;;;;3.83;2.60;;;;;;;;;;5071915;28;20059;-66
2023/05/02 10:25:28;;;;;;;6.15;2.40;;;;;;;;;;5072450;28;20027;-66
2023/05/02 10:27:58;;;;;;;3.35;2.30;;;;;;;;;;5072987;28;20375;-66
2023/05/02 10:30:25;;;;;;;5.60;2.42;;;;;;;;;;5071826;28;20028;-67
2023/05/02 10:32:54;;;;;;;4.45;2.30;;;;;;;;;;5073359;28;20032;-66
2023/05/02 10:35:20;;;;;;;2.97;2.20;;;;;;;;;;5073241;28;20028;-66
2023/05/02 10:37:47;;;;;;;8.30;2.80;;;;;;;;;;5072966;28;20114;-66
2023/05/02 10:40:13;;;;;;;7.00;2.38;;;;;;;;;;5073392;28;20070;-66
2023/05/02 10:42:44;;;;;;;5.93;2.38;;;;;;;;;;5073113;28;20032;-66
2023/05/02 10:45:29;;;;;;;9.32;2.45;;;;;;;;;;5072959;28;20075;-66
2023/05/02 10:48:18;;;;;;;5.20;2.30;;;;;;;;;;5072861;28;20024;-66
2023/05/02 10:51:00;;;;;;;2.45;2.25;;;;;;;;;;5073261;28;20040;-66
2023/05/02 10:53:36;;;;;;;3.58;2.38;;;;;;;;;;5073178;28;20024;-66
2023/05/02 10:56:10;;;;;;;3.70;2.00;;;;;;;;;;5072800;28;20043;-66
2023/05/02 10:58:36;;;;;;;2.88;2.17;;;;;;;;;;5071565;28;20428;-66
2023/05/02 11:01:29;;;;;;;4.95;2.15;;;;;;;;;;5072897;28;20028;-66
2023/05/02 11:04:09;;;;;;;3.72;2.65;;;;;;;;;;5073014;28;20036;-67
2023/05/02 11:06:55;;;;;;;7.75;2.30;;;;;;;;;;5072770;28;20029;-66
2023/05/02 11:09:21;;;;;;;2.75;2.22;;;;;;;;;;5068221;28;20559;-66
2023/05/02 11:11:48;;;;;;;2.90;2.05;;;;;;;;;;5072176;28;20132;-66
2023/05/02 11:14:29;;;;;;;3.63;2.22;;;;;;;;;;5072438;28;20020;-66
2023/05/02 11:17:02;;;;;;;4.15;2.13;;;;;;;;;;5072594;28;20025;-66
2023/05/02 11:19:30;;;;;;;2.70;2.00;;;;;;;;;;5072345;28;20492;-66
2023/05/02 11:22:22;;;;;;;5.47;2.10;;;;;;;;;;5072277;28;20036;-66
2023/05/02 11:24:49;;;;;;;3.38;2.00;;;;;;;;;;5072518;28;20118;-66
2023/05/02 11:27:32;;;;;;;4.57;2.20;;;;;;;;;;5072176;28;20107;-66
2023/05/02 11:29:59;;;;;;;4.00;2.15;;;;;;;;;;5083801;28;20184;-65
2023/05/02 11:32:44;;;;;;;2.55;2.28;;;;;;;;;;5087646;28;20020;-66
2023/05/02 11:35:31;;;;;;;2.42;2.03;;;;;;;;;;5090650;28;20042;-66
2023/05/02 11:38:07;;;;;;;7.45;2.50;;;;;;;;;;5090544;28;20520;-66
2023/05/02 11:40:33;;;;;;;3.67;2.40;;;;;;;;;;5090960;28;20162;-66
2023/05/02 11:42:59;;;;;;;3.58;2.25;;;;;;;;;;5080524;28;20119;-66
2023/05/02 11:45:44;;;;;;;8.98;2.33;;;;;;;;;;5072009;28;20032;-66
2023/05/02 11:48:11;;;;;;;5.57;2.28;;;;;;;;;;5089054;28;20028;-66
2023/05/02 11:50:44;;;;;;;7.03;2.40;;;;;;;;;;5091967;28;20148;-66
2023/05/02 11:53:15;;;;;;;3.83;2.15;;;;;;;;;;5090434;28;20055;-66
2023/05/02 11:55:48;;;;;;;2.63;2.00;;;;;;;;;;5091829;28;20671;-66
2023/05/02 11:58:18;;;;;;;3.10;1.95;;;;;;;;;;5091887;28;20028;-66
2023/05/02 12:00:45;;;;;;;2.85;2.10;;;;;;;;;;5091907;28;20169;-66
2023/05/02 12:03:28;;;;;;;4.55;2.45;;;;;;;;;;5092075;28;20055;-66
2023/05/02 12:05:54;;;;;;;13.95;2.83;;;;;;;;;;5091740;28;20028;-66
2023/05/02 12:08:26;;;;;;;11.63;2.70;;;;;;;;;;5091536;28;20036;-66
2023/05/02 12:10:54;;;;;;;7.63;2.60;;;;;;;;;;5091964;28;20024;-66
2023/05/02 12:13:21;;;;;;;6.32;2.17;;;;;;;;;;5091678;28;20476;-67
2023/05/02 12:15:49;;;;;;;2.72;1.80;;;;;;;;;;5091911;28;20039;-65
2023/05/02 12:18:15;;;;;;;2.35;2.15;;;;;;;;;;5091546;28;20028;-64
2023/05/02 12:20:41;;;;;;;2.70;2.00;;;;;;;;;;5091813;28;20052;-64
2023/05/02 12:23:08;;;;;;;3.33;2.53;;;;;;;;;;5091444;28;20076;-64
2023/05/02 12:25:41;;;;;;;5.70;2.47;;;;;;;;;;5090485;28;20229;-66
2023/05/02 12:28:07;;;;;;;3.97;2.58;;;;;;;;;;5089787;28;20027;-66
2023/05/02 12:30:34;;;;;;;3.90;2.28;;;;;;;;;;5088412;28;20032;-64
2023/05/02 12:33:01;;;;;;;10.70;2.40;;;;;;;;;;5090129;28;20012;-62
2023/05/02 12:35:28;;;;;;;4.45;2.28;;;;;;;;;;5090328;28;20035;-63
2023/05/02 12:37:57;;;;;;;5.95;2.22;;;;;;;;;;5090598;28;20083;-66
2023/05/02 12:40:22;;;;;;;9.32;2.28;;;;;;;;;;5089984;28;20480;-64
2023/05/02 12:43:06;;;;;;;4.82;2.47;;;;;;;;;;5089956;28;20035;-65
2023/05/02 12:45:36;;;;;;;7.15;2.47;;;;;;;;;;5090948;28;20028;-66
2023/05/02 12:48:16;;;;;;;4.35;2.20;;;;;;;;;;5091118;28;20476;-64
2023/05/02 12:50:42;;;;;;;4.30;2.10;;;;;;;;;;5088043;28;20055;-64
2023/05/02 12:53:07;;;;;;;3.33;2.60;;;;;;;;;;5086810;28;20387;-64
2023/05/02 12:55:34;;;;;;;4.22;2.28;;;;;;;;;;5090872;28;20144;-64
2023/05/02 12:58:07;;;;;;;5.18;2.20;;;;;;;;;;5091031;28;20495;-64
2023/05/02 13:00:36;;;;;;;2.67;2.08;;;;;;;;;;5090778;28;20032;-64
2023/05/02 13:03:01;;;;;;;2.95;2.13;;;;;;;;;;5091272;28;20070;-64
2023/05/02 13:05:27;;;;;;;3.80;2.28;;;;;;;;;;5090935;28;20494;-65
2023/05/02 13:07:55;;;;;;;5.35;2.13;;;;;;;;;;5077302;28;20197;-65
2023/05/02 13:10:21;;;;;;;5.65;2.10;;;;;;;;;;5070322;28;20468;-65
2023/05/02 13:12:47;;;;;;;4.78;2.33;;;;;;;;;;5069331;28;20024;-65
2023/05/02 13:15:14;;;;;;;2.67;2.33;;;;;;;;;;5069467;28;20361;-64
2023/05/02 13:17:39;;;;;;;5.95;2.30;;;;;;;;;;5070682;28;20035;-65
2023/05/02 13:20:07;;;;;;;3.47;2.33;;;;;;;;;;5070415;28;20036;-65
2023/05/02 13:22:32;;;;;;;3.80;2.28;;;;;;;;;;5070189;28;20535;-65
2023/05/02 13:24:58;;;;;;;6.25;2.42;;;;;;;;;;5070639;28;20033;-65
2023/05/02 13:27:24;;;;;;;4.35;2.60;;;;;;;;;;5070305;28;20633;-64
2023/05/02 13:29:50;;;;;;;3.22;2.30;;;;;;;;;;5070235;28;20029;-65
2023/05/02 13:32:17;;;;;;;5.90;2.67;;;;;;;;;;5083851;28;20104;-66
2023/05/02 13:34:43;;;;;;;3.38;2.70;;;;;;;;;;5089627;28;20032;-65
2023/05/02 13:37:09;;;;;;;2.38;2.17;;;;;;;;;;5090262;28;20438;-65
2023/05/02 13:39:34;;;;;;;6.97;2.75;;;;;;;;;;5090560;28;20066;-66
2023/05/02 13:42:03;;;;;;;17.23;3.25;;;;;;;;;;5090388;28;20031;-66
2023/05/02 13:44:30;;;;;;;2.65;2.30;;;;;;;;;;5090530;28;20418;-66
2023/05/02 13:46:55;;;;;;;5.53;2.40;;;;;;;;;;5090264;28;20029;-64
2023/05/02 13:49:21;;;;;;;4.03;2.80;;;;;;;;;;5094161;28;20038;-65
2023/05/02 13:51:47;;;;;;;4.97;2.53;;;;;;;;;;5094075;28;20025;-66
2023/05/02 13:54:13;;;;;;;4.60;2.60;;;;;;;;;;5094218;28;20114;-65
2023/05/02 13:56:41;;;;;;;5.32;2.42;;;;;;;;;;5092667;28;20024;-66
2023/05/02 13:59:07;;;;;;;3.13;2.30;;;;;;;;;;5094327;28;20020;-66
2023/05/02 14:01:33;;;;;;;5.00;2.70;;;;;;;;;;5094017;28;20035;-65
2023/05/02 14:03:59;;;;;;;3.33;2.60;;;;;;;;;;5094063;28;20484;-65
2023/05/02 14:06:25;;;;;;;5.63;2.42;;;;;;;;;;5092617;28;20468;-65
2023/05/02 14:08:51;;;;;;;2.78;2.47;;;;;;;;;;5094247;28;20043;-64
2023/05/02 14:11:16;;;;;;;4.55;2.80;;;;;;;;;;5093687;28;20043;-64
2023/05/02 14:13:43;;;;;;;4.50;2.75;;;;;;;;;;5086480;28;20028;-65
2023/05/02 14:16:08;;;;;;;6.63;2.50;;;;;;;;;;5073498;28;20066;-66
2023/05/02 14:18:34;;;;;;;3.90;2.50;;;;;;;;;;5077388;28;20058;-65
2023/05/02 14:21:00;;;;;;;3.80;2.53;;;;;;;;;;5093456;28;20059;-66
2023/05/02 14:23:29;;;;;;;4.45;2.88;;;;;;;;;;5094252;28;20142;-65
2023/05/02 14:25:55;;;;;;;2.63;2.42;;;;;;;;;;5092606;28;20032;-65
2023/05/02 14:28:21;;;;;;;6.57;2.70;;;;;;;;;;5093382;28;20357;-65
2023/05/02 14:30:50;;;;;;;5.50;2.95;;;;;;;;;;5093617;28;20084;-64
2023/05/02 14:33:16;;;;;;;4.78;3.00;;;;;;;;;;5093334;28;20046;-65
2023/05/02 14:35:41;;;;;;;5.15;2.60;;;;;;;;;;5093022;28;20038;-65
2023/05/02 14:38:07;;;;;;;2.75;2.55;;;;;;;;;;5093682;28;20101;-65
2023/05/02 14:40:33;;;;;;;3.72;2.70;;;;;;;;;;5093294;28;20036;-65
2023/05/02 14:42:59;;;;;;;5.47;2.97;;;;;;;;;;5093437;28;20026;-65
2023/05/02 14:45:24;;;;;;;6.78;2.53;;;;;;;;;;5093380;28;20537;-64
2023/05/02 14:47:50;;;;;;;5.80;2.97;;;;;;;;;;5093286;28;20028;-64
2023/05/02 14:50:16;;;;;;;3.15;2.50;;;;;;;;;;5091546;28;20040;-65